Česky Dansk Deutsch English Español Suomi Français Magyar Italiano Nederlands norsk Polski Português svenska Türkçe

 

Het Weer

Rzeszow-Jasionka (Polen)

18:30, 19 augustus 2016 (GMT)

NWNNE
WE
SWSSE
Home            
Rzeszow-Jasionka Kamenica Nad Cirochou L'Viv Krakow Uzhhorod Kosice, Barca Kosice Poprad / Tatry Katowice Ivano-Frankivsk Nyiregyhaza / Napkor Warszawa-Okecie Miskolc Brest Lucenec Satu Mare Sliac Dolny Hricov Sliac Ostrava / Mosnov Prievidza Debrecen Baia Mare

Om een weerknop op uw website of weblog te plaatsen, copieer onderstaande code en plak die in uw pagina. In het eerste vakje staat HTML-code, in het tweede vakje UBB-code.


Add to Google

Details

Wind speed:1 bf, 3 kn, 1.5 m/s, 3.5 miles/h, 5.6 km/h
Wind direction:SSE, 150°
Visibility:Greater than 10000 m, 10 km, 32800 ft, 6.2 miles
Clouds:CAVOC
Temperature:20°C, 68°F
Dew-point:14°C, 57°F
Atmospheric pressure:1015 hPa, 761.3 mmHg, 29.97 inHg, 1.002 atm
Relative humidity:68.4 %
METAR:EPRZ 191830Z 15003KT CAVOK 20/14 Q1015

Snelkoppelingen

Actuele weersinformatie van de hele wereld. Voeg locaties toe met het plus (+) symbool. Deze snelkoppelingen kunnen worden toegevoegd aan Google.

Lid van de Technetium groep

website free tracking
StatCounter NetStat W3C Validator

03-10-2022 07:54:50
astro.technetium.be money.technetium.be phote.technetium.be tafeltennistafel.technetium.be www.ligfiets.net